Time;durP1;ratioP1;P1;durP2;ratioP2;P2;SDS_P1;SDS_P2;PMS_P1;PMS_P2;Temp;Humidity;BMP_temperature;BMP_pressure;BME280_temperature;BME280_humidity;BME280_pressure;Samples;Min_cycle;Max_cycle;Signal;HPM_P1;HPM_P2
2020/12/01 00:01:19;;;;;;;16.92;8.77;;;4.00;99.90;;;;;;5034873;28;20037;-64
2020/12/01 00:03:45;;;;;;;15.48;8.18;;;4.00;99.90;;;;;;5037481;28;20057;-64
2020/12/01 00:06:11;;;;;;;18.45;9.82;;;4.00;99.90;;;;;;5037329;28;20071;-64
2020/12/01 00:08:38;;;;;;;12.90;7.47;;;4.00;99.90;;;;;;5038990;28;20421;-64
2020/12/01 00:11:05;;;;;;;13.55;7.63;;;4.00;99.90;;;;;;5034036;28;20123;-64
2020/12/01 00:13:31;;;;;;;13.07;8.20;;;4.10;99.90;;;;;;5034708;28;20029;-64
2020/12/01 00:15:57;;;;;;;12.95;7.30;;;4.10;99.90;;;;;;5037043;28;20095;-64
2020/12/01 00:18:23;;;;;;;13.05;7.82;;;4.10;99.90;;;;;;5037177;28;20045;-63
2020/12/01 00:20:48;;;;;;;12.35;7.25;;;4.10;99.90;;;;;;5039564;28;20571;-63
2020/12/01 00:23:14;;;;;;;12.43;7.50;;;4.10;99.90;;;;;;5037075;28;20041;-64
2020/12/01 00:25:40;;;;;;;14.05;6.78;;;4.10;99.90;;;;;;5025490;28;20455;-63
2020/12/01 00:28:06;;;;;;;10.60;6.68;;;4.10;99.90;;;;;;5036510;28;20357;-63
2020/12/01 00:30:32;;;;;;;12.75;6.88;;;4.10;99.90;;;;;;5037264;28;20039;-64
2020/12/01 00:32:58;;;;;;;12.13;7.05;;;4.10;99.90;;;;;;5035685;28;20250;-64
2020/12/01 00:35:28;;;;;;;12.35;6.75;;;4.10;99.90;;;;;;5034810;28;20028;-63
2020/12/01 00:37:53;;;;;;;10.15;6.47;;;4.00;99.90;;;;;;5037999;28;20526;-64
2020/12/01 00:40:20;;;;;;;11.95;6.68;;;4.00;99.90;;;;;;5036599;28;20025;-63
2020/12/01 00:42:46;;;;;;;14.90;6.75;;;4.00;99.90;;;;;;5034884;28;20041;-64
2020/12/01 00:45:15;;;;;;;11.60;6.18;;;4.10;99.90;;;;;;5035448;28;20069;-64
2020/12/01 00:47:41;;;;;;;10.32;5.88;;;4.10;99.90;;;;;;5035510;28;20036;-64
2020/12/01 00:50:17;;;;;;;10.77;6.28;;;4.10;99.90;;;;;;5038455;28;20365;-63
2020/12/01 00:52:43;;;;;;;11.18;6.32;;;4.10;99.90;;;;;;5032597;28;20243;-64
2020/12/01 00:55:09;;;;;;;10.98;5.82;;;4.10;99.90;;;;;;5034923;28;20028;-65
2020/12/01 00:57:35;;;;;;;9.68;6.55;;;4.00;99.90;;;;;;5017629;28;20068;-64
2020/12/01 01:00:04;;;;;;;9.98;5.88;;;4.10;99.90;;;;;;5039319;28;20374;-63
2020/12/01 01:02:30;;;;;;;11.13;6.03;;;4.10;99.90;;;;;;5013783;28;20251;-64
2020/12/01 01:04:56;;;;;;;13.77;6.97;;;4.10;99.90;;;;;;5035225;28;20033;-64
2020/12/01 01:07:21;;;;;;;9.52;5.00;;;4.00;99.90;;;;;;5017959;28;20037;-64
2020/12/01 01:09:47;;;;;;;9.65;6.30;;;4.00;99.90;;;;;;5035559;28;20021;-64
2020/12/01 01:12:13;;;;;;;9.73;5.63;;;4.00;99.90;;;;;;5038960;28;20037;-63
2020/12/01 01:14:39;;;;;;;12.88;5.55;;;4.10;99.90;;;;;;5034472;28;20478;-64
2020/12/01 01:17:05;;;;;;;11.15;6.28;;;4.00;99.90;;;;;;5036338;28;20040;-63
2020/12/01 01:19:31;;;;;;;10.60;5.47;;;4.00;99.90;;;;;;5037201;28;20136;-63
2020/12/01 01:21:57;;;;;;;10.55;6.20;;;4.10;99.90;;;;;;5031938;28;20037;-64
2020/12/01 01:24:22;;;;;;;8.88;5.65;;;4.10;99.90;;;;;;5032265;28;20599;-63
2020/12/01 01:26:53;;;;;;;11.45;5.70;;;4.00;99.90;;;;;;5035962;28;20452;-63
2020/12/01 01:29:21;;;;;;;8.82;5.65;;;4.10;99.90;;;;;;5034930;28;20091;-63
2020/12/01 01:31:47;;;;;;;10.55;6.40;;;4.10;99.90;;;;;;5035251;28;20106;-63
2020/12/01 01:34:13;;;;;;;10.70;6.32;;;4.10;99.90;;;;;;5029169;28;20026;-63
2020/12/01 01:36:39;;;;;;;13.35;7.03;;;4.10;99.90;;;;;;5032862;28;20143;-63
2020/12/01 01:39:07;;;;;;;12.90;7.00;;;4.10;99.90;;;;;;5035600;28;20499;-63
2020/12/01 01:41:35;;;;;;;10.57;5.95;;;4.00;99.90;;;;;;5034271;28;20049;-63
2020/12/01 01:44:00;;;;;;;12.23;6.50;;;4.10;99.90;;;;;;5034614;28;20041;-63
2020/12/01 01:46:36;;;;;;;11.15;6.75;;;4.10;99.90;;;;;;5036786;28;20037;-63
2020/12/01 01:49:05;;;;;;;10.48;6.18;;;4.10;99.90;;;;;;5034837;28;20793;-63
2020/12/01 01:51:35;;;;;;;11.98;6.40;;;4.10;99.90;;;;;;5031457;28;20037;-64
2020/12/01 01:54:02;;;;;;;13.32;5.90;;;4.00;99.90;;;;;;5032291;28;20029;-64
2020/12/01 01:56:34;;;;;;;10.63;5.78;;;4.10;99.90;;;;;;5034336;28;20051;-64
2020/12/01 01:59:01;;;;;;;9.57;6.18;;;4.10;99.90;;;;;;5037354;28;20119;-64
2020/12/01 02:01:29;;;;;;;12.35;5.30;;;4.20;99.90;;;;;;5016357;28;20461;-64
2020/12/01 02:04:06;;;;;;;10.38;5.70;;;4.20;99.90;;;;;;5032515;28;20045;-64
2020/12/01 02:06:48;;;;;;;10.15;5.50;;;4.30;99.90;;;;;;5034714;28;20510;-64
2020/12/01 02:09:21;;;;;;;11.18;6.13;;;4.20;99.90;;;;;;5035046;28;20031;-63
2020/12/01 02:11:48;;;;;;;10.55;6.32;;;4.20;99.90;;;;;;5032967;28;20026;-63
2020/12/01 02:14:26;;;;;;;9.25;5.63;;;4.20;99.90;;;;;;5034248;28;20119;-63
2020/12/01 02:16:58;;;;;;;8.18;5.18;;;4.20;99.90;;;;;;5032581;28;20051;-63
2020/12/01 02:19:29;;;;;;;12.38;6.22;;;4.10;99.90;;;;;;5036268;28;20339;-63
2020/12/01 02:21:58;;;;;;;9.43;5.32;;;4.10;99.90;;;;;;5032695;28;20029;-63
2020/12/01 02:24:27;;;;;;;10.73;5.50;;;4.10;99.90;;;;;;5034022;28;20446;-63
2020/12/01 02:26:56;;;;;;;14.00;6.32;;;4.20;99.90;;;;;;5034944;28;20064;-64
2020/12/01 02:29:26;;;;;;;8.20;5.90;;;4.10;99.90;;;;;;5007487;28;20102;-63
2020/12/01 02:31:52;;;;;;;;;;;4.20;99.90;;;;;;5033653;28;20037;-63
2020/12/01 02:34:20;;;;;;;10.52;6.30;;;4.20;99.90;;;;;;5034134;28;20390;-63
2020/12/01 02:36:46;;;;;;;10.93;6.07;;;4.20;99.90;;;;;;5034697;28;20084;-63
2020/12/01 02:39:17;;;;;;;10.85;6.22;;;4.20;99.90;;;;;;5031291;28;20198;-64
2020/12/01 02:41:42;;;;;;;10.65;6.22;;;4.20;99.90;;;;;;5036750;28;20025;-63
2020/12/01 02:44:08;;;;;;;11.02;6.45;;;4.30;99.90;;;;;;5033009;28;20039;-63
2020/12/01 02:46:37;;;;;;;10.38;6.13;;;4.30;99.90;;;;;;5031421;28;20037;-64
2020/12/01 02:49:07;;;;;;;11.85;6.68;;;4.20;99.90;;;;;;5031436;28;20033;-63
2020/12/01 02:51:34;;;;;;;10.60;6.72;;;4.20;99.90;;;;;;5034214;28;20151;-64
2020/12/01 02:54:00;;;;;;;12.30;6.55;;;4.20;99.90;;;;;;5033842;28;20106;-63
2020/12/01 02:56:26;;;;;;;11.38;5.80;;;4.20;99.90;;;;;;5033156;28;20127;-63
2020/12/01 02:58:52;;;;;;;11.32;6.65;;;4.20;99.90;;;;;;5033112;28;20063;-63
2020/12/01 03:01:18;;;;;;;10.55;6.68;;;4.20;99.90;;;;;;5036551;28;20025;-64
2020/12/01 03:03:44;;;;;;;12.57;6.57;;;4.20;99.90;;;;;;5030112;28;20064;-63
2020/12/01 03:06:15;;;;;;;11.55;6.70;;;4.20;99.90;;;;;;5034739;28;20392;-62
2020/12/01 03:08:41;;;;;;;9.93;6.22;;;4.20;99.90;;;;;;5033224;28;20487;-63
2020/12/01 03:11:09;;;;;;;11.32;6.55;;;4.20;99.90;;;;;;5034269;28;20033;-63
2020/12/01 03:13:35;;;;;;;13.27;6.90;;;4.20;99.90;;;;;;5030316;28;20972;-63
2020/12/01 03:16:09;;;;;;;10.77;6.80;;;4.10;99.90;;;;;;5035635;28;20397;-63
2020/12/01 03:18:40;;;;;;;11.75;6.50;;;4.10;99.90;;;;;;5015143;28;20045;-63
2020/12/01 03:21:06;;;;;;;11.52;6.28;;;4.10;99.90;;;;;;5025381;28;20526;-63
2020/12/01 03:23:33;;;;;;;11.75;6.95;;;4.10;99.90;;;;;;5033263;28;20043;-63
2020/12/01 03:26:00;;;;;;;13.77;7.13;;;4.10;99.90;;;;;;5032233;28;20081;-63
2020/12/01 03:28:26;;;;;;;10.75;6.53;;;4.00;99.90;;;;;;5027106;28;20032;-63
2020/12/01 03:30:52;;;;;;;11.05;6.78;;;4.10;99.90;;;;;;5030203;28;20578;-63
2020/12/01 03:33:19;;;;;;;12.82;7.07;;;4.00;99.90;;;;;;5033440;28;20189;-63
2020/12/01 03:35:45;;;;;;;10.88;6.97;;;4.10;99.90;;;;;;5031645;28;20499;-63
2020/12/01 03:38:11;;;;;;;11.35;6.95;;;4.10;99.90;;;;;;5007961;28;20041;-63
2020/12/01 03:40:37;;;;;;;14.32;6.82;;;4.10;99.90;;;;;;5037035;28;20216;-63
2020/12/01 03:43:03;;;;;;;10.90;6.05;;;4.20;99.90;;;;;;5034310;28;20595;-63
2020/12/01 03:45:29;;;;;;;12.57;6.65;;;4.20;99.90;;;;;;5036662;28;20036;-64
2020/12/01 03:47:55;;;;;;;12.02;7.20;;;4.20;99.90;;;;;;5035756;28;20025;-63
2020/12/01 03:50:26;;;;;;;11.25;6.32;;;4.20;99.90;;;;;;5036869;28;20029;-63
2020/12/01 03:52:52;;;;;;;10.77;6.72;;;4.20;99.90;;;;;;5036044;28;20531;-64
2020/12/01 03:55:20;;;;;;;12.80;6.85;;;4.20;99.90;;;;;;5035814;28;20037;-63
2020/12/01 03:57:46;;;;;;;14.07;7.70;;;4.20;99.90;;;;;;5036494;28;20045;-64
2020/12/01 04:00:16;;;;;;;10.98;6.82;;;4.20;99.90;;;;;;5035068;28;20186;-63
2020/12/01 04:02:42;;;;;;;16.00;7.60;;;4.20;99.90;;;;;;5035737;28;20144;-63
2020/12/01 04:05:09;;;;;;;10.55;6.55;;;4.20;99.90;;;;;;5030500;28;20579;-63
2020/12/01 04:07:35;;;;;;;10.60;6.55;;;4.10;99.90;;;;;;5033286;28;20033;-63
2020/12/01 04:10:03;;;;;;;12.13;7.20;;;4.20;99.90;;;;;;5013557;28;20108;-63
2020/12/01 04:12:28;;;;;;;11.15;6.78;;;4.20;99.90;;;;;;5032167;28;20037;-63
2020/12/01 04:14:55;;;;;;;12.77;6.97;;;4.20;99.90;;;;;;5032048;28;20075;-63
2020/12/01 04:17:21;;;;;;;11.80;6.70;;;4.20;99.90;;;;;;5033529;28;20084;-63
2020/12/01 04:19:47;;;;;;;11.80;7.10;;;4.20;99.90;;;;;;5033783;28;20821;-63
2020/12/01 04:22:14;;;;;;;10.52;6.10;;;4.30;99.90;;;;;;5033091;28;20033;-63
2020/12/01 04:24:41;;;;;;;9.27;6.38;;;4.20;99.90;;;;;;5032052;28;20025;-64
2020/12/01 04:27:12;;;;;;;9.60;6.82;;;4.20;99.90;;;;;;5032564;28;20420;-63
2020/12/01 04:29:38;;;;;;;11.10;6.78;;;4.20;99.90;;;;;;5034114;28;20476;-63
2020/12/01 04:32:05;;;;;;;11.43;6.60;;;4.20;99.90;;;;;;5031399;28;20565;-64
2020/12/01 04:34:31;;;;;;;11.85;6.25;;;4.10;99.90;;;;;;5032191;28;20075;-64
2020/12/01 04:36:58;;;;;;;12.90;6.82;;;4.20;99.90;;;;;;5030032;28;20053;-64
2020/12/01 04:39:24;;;;;;;10.80;6.65;;;4.20;99.90;;;;;;5030673;28;20483;-63
2020/12/01 04:41:51;;;;;;;10.25;6.45;;;4.10;99.90;;;;;;5032993;28;20030;-63
2020/12/01 04:44:54;;;;;;;15.32;7.47;;;4.20;99.90;;;;;;5032936;28;20036;-63
2020/12/01 04:47:27;;;;;;;11.55;6.47;;;4.10;99.90;;;;;;5031518;28;20114;-63
2020/12/01 04:50:09;;;;;;;10.02;5.93;;;4.20;99.90;;;;;;5036052;28;20124;-63
2020/12/01 04:52:44;;;;;;;12.27;6.50;;;4.20;99.90;;;;;;5036203;28;20598;-63
2020/12/01 04:55:32;;;;;;;12.80;7.68;;;4.20;99.90;;;;;;5030895;28;20348;-63
2020/12/01 04:58:37;;;;;;;12.63;7.20;;;4.20;99.90;;;;;;5030582;28;20497;-63
2020/12/01 05:01:07;;;;;;;11.00;6.82;;;4.10;99.90;;;;;;5033817;28;20033;-63
2020/12/01 05:03:59;;;;;;;10.93;6.13;;;4.10;99.90;;;;;;5031115;28;20032;-63
2020/12/01 05:07:07;;;;;;;12.45;6.70;;;4.10;99.90;;;;;;5032063;28;20037;-63
2020/12/01 05:09:47;;;;;;;11.88;6.40;;;4.00;99.90;;;;;;5027979;28;20401;-63
2020/12/01 05:12:38;;;;;;;13.02;7.15;;;4.10;99.90;;;;;;5032635;28;20024;-63
2020/12/01 05:15:33;;;;;;;10.68;6.40;;;4.20;99.90;;;;;;5035264;28;20271;-62
2020/12/01 05:18:25;;;;;;;12.93;7.00;;;4.20;99.90;;;;;;5025412;28;20168;-63
2020/12/01 05:20:54;;;;;;;12.77;7.38;;;4.10;99.90;;;;;;5028741;28;20024;-67
2020/12/01 05:23:29;;;;;;;13.02;7.18;;;4.10;99.90;;;;;;5028617;28;20025;-67
2020/12/01 05:26:03;;;;;;;12.40;6.82;;;4.10;99.90;;;;;;5034335;28;20108;-67
2020/12/01 05:28:29;;;;;;;10.88;7.22;;;4.10;99.90;;;;;;5036209;28;20071;-67
2020/12/01 05:31:06;;;;;;;12.48;6.80;;;4.20;99.90;;;;;;5035826;28;20119;-67
2020/12/01 05:33:33;;;;;;;10.93;6.90;;;4.20;99.90;;;;;;5033916;28;20715;-68
2020/12/01 05:36:17;;;;;;;11.32;6.95;;;4.20;99.90;;;;;;5036755;28;20048;-67
2020/12/01 05:38:54;;;;;;;12.20;7.38;;;4.30;99.90;;;;;;5036227;28;20041;-67
2020/12/01 05:41:22;;;;;;;11.20;6.68;;;4.30;99.90;;;;;;5036206;28;20029;-67
2020/12/01 05:43:55;;;;;;;14.50;7.38;;;4.30;99.90;;;;;;5031665;28;20064;-67
2020/12/01 05:46:36;;;;;;;11.07;6.60;;;4.30;99.90;;;;;;5034847;28;20092;-67
2020/12/01 05:49:17;;;;;;;10.57;6.95;;;4.30;99.90;;;;;;5033907;28;20407;-67
2020/12/01 05:51:46;;;;;;;11.13;6.85;;;4.30;99.90;;;;;;5030192;28;20435;-67
2020/12/01 05:54:33;;;;;;;12.00;7.20;;;4.40;99.90;;;;;;5034050;28;20067;-68
2020/12/01 05:56:58;;;;;;;15.10;6.90;;;4.30;99.90;;;;;;5017494;28;20045;-67
2020/12/01 05:59:25;;;;;;;13.13;7.15;;;4.30;99.90;;;;;;5035206;28;20073;-67
2020/12/01 06:01:57;;;;;;;12.30;7.40;;;4.30;99.90;;;;;;5025009;28;20029;-67
2020/12/01 06:04:25;;;;;;;12.93;7.35;;;4.40;99.90;;;;;;5026443;28;20608;-67
2020/12/01 06:07:04;;;;;;;12.27;7.28;;;4.30;99.90;;;;;;5011632;28;20028;-67
2020/12/01 06:09:39;;;;;;;13.97;7.30;;;4.30;99.90;;;;;;5033996;28;20488;-67
2020/12/01 06:12:32;;;;;;;11.13;7.05;;;4.30;99.90;;;;;;5033878;28;20029;-67
2020/12/01 06:15:02;;;;;;;10.68;6.05;;;4.30;99.90;;;;;;5020693;28;20726;-67
2020/12/01 06:17:47;;;;;;;12.50;7.13;;;4.30;99.90;;;;;;5034356;28;20496;-67
2020/12/01 06:20:54;;;;;;;12.27;7.35;;;4.40;99.90;;;;;;5035501;28;20033;-67
2020/12/01 06:23:49;;;;;;;13.40;7.28;;;4.40;99.90;;;;;;4964335;28;20121;-67
2020/12/01 06:26:48;;;;;;;11.60;7.43;;;4.30;99.90;;;;;;4964143;28;20376;-67
2020/12/01 06:29:41;;;;;;;13.00;7.45;;;4.30;99.90;;;;;;5029390;28;20450;-67
2020/12/01 06:32:45;;;;;;;10.90;7.18;;;4.30;99.90;;;;;;5037225;28;20043;-67
2020/12/01 06:35:41;;;;;;;12.80;6.80;;;4.30;99.90;;;;;;5036980;28;20029;-66
2020/12/01 06:38:15;;;;;;;15.75;8.23;;;4.30;99.90;;;;;;5035612;28;20075;-66
2020/12/01 06:40:46;;;;;;;10.85;6.55;;;4.40;99.90;;;;;;5036416;28;20039;-67
2020/12/01 06:43:41;;;;;;;13.35;7.05;;;4.40;99.90;;;;;;5033538;28;20075;-67
2020/12/01 06:46:29;;;;;;;12.07;6.53;;;4.40;99.90;;;;;;5036828;28;20052;-67
2020/12/01 06:48:56;;;;;;;13.02;7.45;;;4.40;99.90;;;;;;5019727;28;20020;-67
2020/12/01 06:51:23;;;;;;;21.48;7.38;;;4.40;99.90;;;;;;5036788;28;20319;-67
2020/12/01 06:53:48;;;;;;;14.40;8.57;;;4.40;99.90;;;;;;5034346;28;20056;-67
2020/12/01 06:56:20;;;;;;;15.38;8.55;;;4.40;99.90;;;;;;5038003;28;20124;-67
2020/12/01 06:58:50;;;;;;;15.75;9.20;;;4.40;99.90;;;;;;5036918;28;20028;-67
2020/12/01 07:01:18;;;;;;;14.18;8.45;;;4.40;99.90;;;;;;5036630;28;20021;-67
2020/12/01 07:03:46;;;;;;;14.32;7.82;;;4.30;99.90;;;;;;5035351;28;20033;-67
2020/12/01 07:06:36;;;;;;;13.77;7.65;;;4.30;99.90;;;;;;5037236;28;20050;-67
2020/12/01 07:09:12;;;;;;;13.70;7.78;;;4.30;99.90;;;;;;5037010;28;20472;-67
2020/12/01 07:11:54;;;;;;;13.07;7.72;;;4.40;99.90;;;;;;5018827;28;20028;-67
2020/12/01 07:14:35;;;;;;;11.70;7.25;;;4.40;99.90;;;;;;5036408;28;20033;-67
2020/12/01 07:17:01;;;;;;;13.38;7.22;;;4.40;99.90;;;;;;5036553;28;20128;-66
2020/12/01 07:19:53;;;;;;;11.63;6.97;;;4.50;99.90;;;;;;5037239;28;20036;-67
2020/12/01 07:22:53;;;;;;;11.65;7.15;;;4.40;99.90;;;;;;5033991;28;20385;-67
2020/12/01 07:25:24;;;;;;;12.95;8.23;;;4.40;99.90;;;;;;5036384;28;20033;-67
2020/12/01 07:28:05;;;;;;;;;;;4.40;99.90;;;;;;5037452;28;20082;-67
2020/12/01 07:30:53;;;;;;;14.00;7.32;;;4.40;99.90;;;;;;5036133;28;19913;-67
2020/12/01 07:33:29;;;;;;;11.82;7.43;;;4.40;99.90;;;;;;5036077;28;20151;-67
2020/12/01 07:36:14;;;;;;;11.98;7.30;;;4.50;99.90;;;;;;5036549;28;20036;-67
2020/12/01 07:38:43;;;;;;;15.40;8.27;;;4.40;99.90;;;;;;5036754;28;20040;-67
2020/12/01 07:41:25;;;;;;;12.35;7.80;;;4.50;99.90;;;;;;5037618;28;20039;-67
2020/12/01 07:44:14;;;;;;;14.35;8.93;;;4.50;99.90;;;;;;5035347;28;20037;-67
2020/12/01 07:47:00;;;;;;;15.43;9.10;;;4.50;99.90;;;;;;5034458;28;20040;-67
2020/12/01 07:49:27;;;;;;;14.40;8.32;;;4.50;99.90;;;;;;5036962;28;20131;-67
2020/12/01 07:52:05;;;;;;;15.27;8.57;;;4.50;99.90;;;;;;5035979;28;20327;-67
2020/12/01 07:54:33;;;;;;;12.85;8.50;;;4.50;99.90;;;;;;5034393;28;20470;-67
2020/12/01 07:56:58;;;;;;;17.25;10.00;;;4.50;99.90;;;;;;5036572;28;20033;-67
2020/12/01 07:59:24;;;;;;;14.57;9.80;;;4.40;99.90;;;;;;5034969;28;20040;-67
2020/12/01 08:01:50;;;;;;;14.02;9.48;;;4.40;99.90;;;;;;5036468;28;20033;-67
2020/12/01 08:04:19;;;;;;;17.40;9.65;;;4.40;99.90;;;;;;5036043;28;20036;-67
2020/12/01 08:06:45;;;;;;;16.25;8.88;;;4.50;99.90;;;;;;5031526;28;20126;-67
2020/12/01 08:09:22;;;;;;;14.25;8.85;;;4.50;99.90;;;;;;5033890;28;20273;-67
2020/12/01 08:11:49;;;;;;;14.57;9.00;;;4.50;99.90;;;;;;5036902;28;20050;-67
2020/12/01 08:14:16;;;;;;;14.27;9.57;;;4.50;99.90;;;;;;5035567;28;20040;-67
2020/12/01 08:16:43;;;;;;;18.25;9.50;;;4.60;99.90;;;;;;5035774;28;20054;-67
2020/12/01 08:19:12;;;;;;;14.35;9.20;;;4.60;99.90;;;;;;5038133;28;20103;-67
2020/12/01 08:21:43;;;;;;;17.75;10.63;;;4.60;99.90;;;;;;5039969;28;20055;-67
2020/12/01 08:24:17;;;;;;;20.25;10.63;;;4.70;99.90;;;;;;5039797;28;20085;-67
2020/12/01 08:26:44;;;;;;;17.30;9.60;;;4.70;99.90;;;;;;5039779;28;20399;-67
2020/12/01 08:29:24;;;;;;;16.60;9.82;;;4.70;99.90;;;;;;5040783;28;20470;-68
2020/12/01 08:32:11;;;;;;;18.00;10.85;;;4.80;99.90;;;;;;5038248;28;20029;-67
2020/12/01 08:35:03;;;;;;;18.35;10.45;;;4.70;99.90;;;;;;5039256;28;20036;-67
2020/12/01 08:37:44;;;;;;;15.82;9.73;;;4.80;99.90;;;;;;5039435;28;20075;-67
2020/12/01 08:40:23;;;;;;;18.58;10.45;;;4.80;99.90;;;;;;5040170;28;20035;-67
2020/12/01 08:43:27;;;;;;;19.45;9.65;;;4.90;99.90;;;;;;5037772;28;20037;-67
2020/12/01 08:46:14;;;;;;;15.40;9.73;;;4.90;99.90;;;;;;5040076;28;20041;-67
2020/12/01 08:48:47;;;;;;;15.25;9.00;;;4.90;99.90;;;;;;5039650;28;20025;-67
2020/12/01 08:51:21;;;;;;;15.88;9.73;;;4.90;99.90;;;;;;5039982;28;20033;-67
2020/12/01 08:53:51;;;;;;;17.70;10.73;;;5.00;99.90;;;;;;5029369;28;20029;-67
2020/12/01 08:56:25;;;;;;;14.23;9.10;;;5.00;99.90;;;;;;5037853;28;20412;-67
2020/12/01 08:58:53;;;;;;;17.65;10.40;;;5.00;99.90;;;;;;5037837;28;20043;-67
2020/12/01 09:01:19;;;;;;;37.38;12.70;;;5.00;99.90;;;;;;5040284;28;20515;-67
2020/12/01 09:03:55;;;;;;;30.20;12.80;;;5.00;99.90;;;;;;5038387;28;20110;-67
2020/12/01 09:06:35;;;;;;;18.83;10.57;;;5.10;99.90;;;;;;5039180;28;20762;-68
2020/12/01 09:09:18;;;;;;;21.30;11.43;;;5.10;99.90;;;;;;5039997;28;20028;-67
2020/12/01 09:12:13;;;;;;;25.65;11.30;;;5.20;99.90;;;;;;5039130;28;20120;-67
2020/12/01 09:23:16;;;;;;;19.40;10.52;;;5.30;99.90;;;;;;5037854;28;20103;-67
2020/12/01 09:25:44;;;;;;;16.95;10.13;;;5.30;99.90;;;;;;5039208;28;20095;-67
2020/12/01 09:28:17;;;;;;;14.65;9.45;;;5.30;99.90;;;;;;5038952;28;20467;-67
2020/12/01 09:30:43;;;;;;;18.65;9.68;;;5.40;99.90;;;;;;5038639;28;20920;-67
2020/12/01 09:33:14;;;;;;;19.98;11.00;;;5.30;99.90;;;;;;5035687;28;20100;-68
2020/12/01 09:35:40;;;;;;;18.60;11.27;;;5.40;99.90;;;;;;5029267;28;20488;-67
2020/12/01 09:38:06;;;;;;;22.15;10.98;;;5.40;99.90;;;;;;5038819;28;20047;-67
2020/12/01 09:40:34;;;;;;;17.30;10.05;;;5.40;99.90;;;;;;5037737;28;20472;-67
2020/12/01 09:43:10;;;;;;;18.23;10.45;;;5.40;99.90;;;;;;5035594;28;20044;-67
2020/12/01 09:45:38;;;;;;;14.75;8.80;;;5.40;99.90;;;;;;5038451;28;20025;-67
2020/12/01 09:48:28;;;;;;;18.40;9.40;;;5.40;99.90;;;;;;5038439;28;20517;-67
2020/12/01 09:50:52;;;;;;;17.58;9.70;;;5.40;99.90;;;;;;5038207;28;20480;-67
2020/12/01 10:04:56;;;;;;;15.30;9.23;;;5.50;99.90;;;;;;5036010;28;20052;-68
2020/12/01 10:20:31;;;;;;;38.83;20.98;;;5.60;99.90;;;;;;5022770;28;20558;-67
2020/12/01 10:35:47;;;;;;;23.35;11.60;;;5.60;99.90;;;;;;5028041;28;20415;-68
2020/12/01 10:38:12;;;;;;;19.52;11.05;;;5.60;99.90;;;;;;5037529;28;20099;-68
2020/12/01 10:40:39;;;;;;;20.13;11.80;;;5.60;99.90;;;;;;5037840;28;20053;-68
2020/12/01 10:43:06;;;;;;;17.73;11.15;;;5.60;99.90;;;;;;5033551;28;20456;-68
2020/12/01 10:45:33;;;;;;;18.10;11.00;;;5.70;99.90;;;;;;5037931;28;20028;-71
2020/12/01 10:47:59;;;;;;;17.25;10.10;;;5.70;99.90;;;;;;5037229;28;20512;-67
2020/12/01 10:50:28;;;;;;;20.00;11.00;;;5.70;99.90;;;;;;5037743;28;20032;-68
2020/12/01 10:52:54;;;;;;;19.73;11.43;;;5.70;99.90;;;;;;5037546;28;20029;-67
2020/12/01 10:55:24;;;;;;;22.95;12.95;;;5.80;99.90;;;;;;5019028;28;20017;-67
2020/12/01 10:57:52;;;;;;;25.23;13.35;;;5.70;99.90;;;;;;5036500;28;20476;-68
2020/12/01 11:00:18;;;;;;;27.30;13.60;;;5.60;99.90;;;;;;5011884;28;20454;-67
2020/12/01 11:02:44;;;;;;;27.83;12.93;;;5.60;99.90;;;;;;5034199;28;20053;-67
2020/12/01 11:05:15;;;;;;;28.27;13.35;;;5.60;99.90;;;;;;5034527;28;20218;-67
2020/12/01 11:07:41;;;;;;;25.02;13.30;;;5.60;99.90;;;;;;5035797;28;20033;-68
2020/12/01 11:10:07;;;;;;;29.77;13.15;;;5.60;99.90;;;;;;5036315;28;20035;-68
2020/12/01 11:12:33;;;;;;;25.00;12.23;;;5.70;99.90;;;;;;5037720;28;20036;-67
2020/12/01 11:14:59;;;;;;;28.52;13.52;;;5.70;99.90;;;;;;5034291;28;20278;-67
2020/12/01 11:17:25;;;;;;;26.27;13.60;;;5.60;99.90;;;;;;5037235;28;20063;-67
2020/12/01 11:19:51;;;;;;;24.83;12.23;;;5.60;99.90;;;;;;5037308;28;21098;-67
2020/12/01 11:22:17;;;;;;;23.00;11.48;;;5.60;99.90;;;;;;5035967;28;20389;-67
2020/12/01 11:24:43;;;;;;;19.67;10.75;;;5.60;99.90;;;;;;5036092;28;20036;-67
2020/12/01 11:27:09;;;;;;;20.60;10.10;;;5.60;99.90;;;;;;5037645;28;20029;-67
2020/12/01 11:29:36;;;;;;;24.98;11.50;;;5.60;99.90;;;;;;5036166;28;20411;-67
2020/12/01 11:32:02;;;;;;;19.75;10.18;;;5.60;99.90;;;;;;5036495;28;20029;-68
2020/12/01 11:34:28;;;;;;;20.83;10.15;;;5.50;99.90;;;;;;5036060;28;20021;-68
2020/12/01 11:36:55;;;;;;;20.98;10.65;;;5.60;99.90;;;;;;5036918;28;20468;-67
2020/12/01 11:39:22;;;;;;;27.35;11.00;;;5.50;99.90;;;;;;5036616;28;20142;-67
2020/12/01 11:41:48;;;;;;;25.67;12.43;;;5.50;99.90;;;;;;5036841;28;20051;-68
2020/12/01 11:44:14;;;;;;;24.77;11.95;;;5.50;99.90;;;;;;5035745;28;20590;-67
2020/12/01 11:46:41;;;;;;;24.70;11.27;;;5.50;99.90;;;;;;5035418;28;20065;-68
2020/12/01 11:49:08;;;;;;;23.55;11.57;;;5.50;99.90;;;;;;5034945;28;20469;-67
2020/12/01 11:51:36;;;;;;;25.00;11.40;;;5.50;99.90;;;;;;5036604;28;20056;-67
2020/12/01 11:54:02;;;;;;;22.10;11.60;;;5.50;99.90;;;;;;5038331;28;20076;-68
2020/12/01 11:56:28;;;;;;;20.02;10.75;;;5.50;99.90;;;;;;5040956;28;20362;-67
2020/12/01 11:58:54;;;;;;;22.63;11.13;;;5.60;99.90;;;;;;5040277;28;20072;-68
2020/12/01 12:01:21;;;;;;;22.20;11.65;;;5.70;99.90;;;;;;5023452;28;20551;-68
2020/12/01 12:03:46;;;;;;;25.88;11.65;;;5.70;99.90;;;;;;5037849;28;20021;-68
2020/12/01 12:06:12;;;;;;;22.25;12.30;;;5.80;99.90;;;;;;5037622;28;20480;-68
2020/12/01 12:08:39;;;;;;;24.95;12.07;;;5.70;99.90;;;;;;5035688;28;20495;-68
2020/12/01 12:11:05;;;;;;;23.35;11.65;;;5.80;99.90;;;;;;5022169;28;20076;-67
2020/12/01 12:13:31;;;;;;;22.75;12.15;;;5.80;99.90;;;;;;5038690;28;20040;-68
2020/12/01 12:15:57;;;;;;;22.83;11.88;;;5.80;99.90;;;;;;5040899;28;20036;-68
2020/12/01 12:18:23;;;;;;;25.85;11.52;;;5.80;99.90;;;;;;5040389;28;20192;-68
2020/12/01 12:20:49;;;;;;;24.48;11.63;;;5.80;99.90;;;;;;5037365;28;20029;-68
2020/12/01 12:23:14;;;;;;;26.35;13.38;;;5.70;99.90;;;;;;5038640;28;20595;-68
2020/12/01 12:25:40;;;;;;;28.15;13.55;;;5.70;99.90;;;;;;5040195;28;20021;-68
2020/12/01 12:28:06;;;;;;;30.48;13.80;;;5.80;99.90;;;;;;5040421;28;20234;-68
2020/12/01 12:30:33;;;;;;;30.80;14.23;;;5.70;99.90;;;;;;5040681;28;20035;-67
2020/12/01 12:33:03;;;;;;;24.27;13.10;;;5.70;99.90;;;;;;5037014;28;20577;-68
2020/12/01 12:35:30;;;;;;;28.75;12.75;;;5.70;99.90;;;;;;5021647;28;20116;-68
2020/12/01 12:37:56;;;;;;;29.38;13.35;;;5.70;99.90;;;;;;5037730;28;20059;-68
2020/12/01 12:40:22;;;;;;;32.08;13.90;;;5.70;99.90;;;;;;5040685;28;20029;-67
2020/12/01 12:42:48;;;;;;;30.30;14.07;;;5.70;99.90;;;;;;5038849;28;20043;-67
2020/12/01 12:45:14;;;;;;;28.80;14.68;;;5.70;99.90;;;;;;5037292;28;20028;-67
2020/12/01 12:47:40;;;;;;;29.63;13.95;;;5.80;99.90;;;;;;5039379;28;20029;-68
2020/12/01 12:50:07;;;;;;;28.85;13.10;;;5.80;99.90;;;;;;5039917;28;20032;-68
2020/12/01 12:52:33;;;;;;;30.67;15.50;;;5.80;99.90;;;;;;5021222;28;20286;-68
2020/12/01 12:54:59;;;;;;;27.50;13.48;;;5.80;99.90;;;;;;5038693;28;20905;-67
2020/12/01 12:57:25;;;;;;;32.80;14.88;;;5.80;99.90;;;;;;5038780;28;20040;-67
2020/12/01 12:59:51;;;;;;;31.05;14.70;;;5.80;99.90;;;;;;5039413;28;20064;-67
2020/12/01 13:02:16;;;;;;;31.55;14.70;;;5.80;99.90;;;;;;5040239;28;20447;-67
2020/12/01 13:04:42;;;;;;;30.42;15.00;;;5.80;99.90;;;;;;5036458;28;20032;-68
2020/12/01 13:07:08;;;;;;;28.50;14.95;;;5.80;99.90;;;;;;5038729;28;20036;-68
2020/12/01 13:09:34;;;;;;;29.50;15.30;;;6.00;99.90;;;;;;5040084;28;20123;-68
2020/12/01 13:12:00;;;;;;;28.67;14.70;;;6.10;99.90;;;;;;5038781;28;20033;-68
2020/12/01 13:14:26;;;;;;;29.70;14.57;;;6.30;99.90;;;;;;5038436;28;20035;-68
2020/12/01 13:16:53;;;;;;;30.15;14.88;;;6.30;99.90;;;;;;5039211;28;20041;-68
2020/12/01 13:19:20;;;;;;;29.42;15.80;;;6.40;99.90;;;;;;5039271;28;20040;-68
2020/12/01 13:21:46;;;;;;;28.55;15.48;;;6.50;99.90;;;;;;5019998;28;20396;-68
2020/12/01 13:24:13;;;;;;;30.02;16.13;;;6.40;99.90;;;;;;5037422;28;20033;-68
2020/12/01 13:26:38;;;;;;;29.33;16.27;;;6.40;99.90;;;;;;5039231;28;20112;-68
2020/12/01 13:29:05;;;;;;;27.58;15.20;;;6.40;99.90;;;;;;5039993;28;20035;-68
2020/12/01 13:31:31;;;;;;;28.27;14.48;;;6.40;99.90;;;;;;5019122;28;20563;-68
2020/12/01 13:33:57;;;;;;;29.75;14.98;;;6.20;99.90;;;;;;5038618;28;20035;-68
2020/12/01 13:36:24;;;;;;;29.23;15.38;;;6.20;99.90;;;;;;5037499;28;20045;-68
2020/12/01 13:38:50;;;;;;;32.70;15.27;;;6.30;99.90;;;;;;5037945;28;20060;-68
2020/12/01 13:41:18;;;;;;;35.42;17.20;;;6.30;99.90;;;;;;5038805;28;20320;-67
2020/12/01 13:43:43;;;;;;;29.70;13.77;;;6.20;99.90;;;;;;5037182;28;20083;-68
2020/12/01 13:46:09;;;;;;;27.90;14.05;;;6.20;99.90;;;;;;5039340;28;20025;-68
2020/12/01 13:48:35;;;;;;;27.42;15.40;;;6.20;99.90;;;;;;5038133;28;20019;-68
2020/12/01 13:51:02;;;;;;;32.13;15.50;;;6.20;99.90;;;;;;5038161;28;20426;-67